Terminal Aerodrome Forecast
Issued by NWS

Home | Current Version | Previous Version | Text Only | Print | Product List | Glossary On
Versions: 1 2 3 4 5 6 7 8 9 10 11 12 13 14 15 16 17 18 19 20 21 22 23
732
FTUS42 KILM 220030 AAA
TAFCRE
TAF AMD
KCRE 220030Z 2201/2224 15008KT 2SM RA BR SCT002 BKN020
     FM220300 21008KT 1/2SM FG VCSH OVC001
     FM221200 21005KT 1/4SM FG OVC003
     FM221400 21007KT 1/2SM FG VCSH SCT003 OVC015
     FM221900 20011KT 3SM -SHRA BR SCT007 OVC015=

USA.gov is the U.S. government's official web portal to all federal, state and local government web resources and services.